KDCA/DCA METAR and TAF weather

Enter ICAO airport designator
Station Type Date Time Source
KDCA METAR 2019/04/25 21:52 UTC NOAA

KDCA 252152Z 11007KT 10SM FEW040 SCT085 BKN110 BKN200 23/12 A2985 RMK AO2 SLP109 T02330117


Station Type Date Time Source
KDCA Decoded METAR 2019/04/25 21:52 UTC NOAA

WASHINGTON NATIONAL AIRPORT , VA, United States (KDCA) 38-51N 077-02W 18M
Apr 25, 2019 - 05:52 PM EDT / 2019.04.25 2152 UTC
Wind: from the ESE (110 degrees) at 8 MPH (7 KT):0
Visibility: 10 mile(s):0
Sky conditions: mostly cloudy
Temperature: 73.9 F (23.3 C)
Dew Point: 53.1 F (11.7 C)
Relative Humidity: 48%
Pressure (altimeter): 29.85 in. Hg (1010 hPa)
ob: KDCA 252152Z 11007KT 10SM FEW040 SCT085 BKN110 BKN200 23/12 A2985 RMK AO2 SLP109 T02330117
cycle: 22

Station Type Date Time Source
KDCA TAF 2019/04/25 21:40 UTC NOAA

TAF
AMD KDCA 252038Z 2521/2624 12006KT P6SM VCSH BKN100
FM260900 14005KT 6SM -SHRA BR OVC060
FM261400 19010KT 6SM -SHRA OVC050
FM261700 18015G26KT 6SM -SHRA VCTS OVC050CB
FM262200 29014G22KT 6SM -SHRA VCTS OVC050CB

Example: see airport list